sensor_id;sensor_type;location;lat;lon;timestamp;P1;durP1;ratioP1;P2;durP2;ratioP2
8993;SDS011;4532;50.886;4.700;2023-04-15T00:01:12;7.03;;;2.90;;
8993;SDS011;4532;50.886;4.700;2023-04-15T00:03:49;5.60;;;3.07;;
8993;SDS011;4532;50.886;4.700;2023-04-15T00:06:22;3.90;;;2.90;;
8993;SDS011;4532;50.886;4.700;2023-04-15T00:08:51;5.73;;;2.97;;
8993;SDS011;4532;50.886;4.700;2023-04-15T00:11:26;6.37;;;3.00;;
8993;SDS011;4532;50.886;4.700;2023-04-15T00:13:53;6.60;;;3.40;;
8993;SDS011;4532;50.886;4.700;2023-04-15T00:16:20;7.13;;;3.63;;
8993;SDS011;4532;50.886;4.700;2023-04-15T00:18:50;5.63;;;3.03;;
8993;SDS011;4532;50.886;4.700;2023-04-15T00:21:20;6.60;;;3.30;;
8993;SDS011;4532;50.886;4.700;2023-04-15T00:23:49;7.27;;;3.60;;
8993;SDS011;4532;50.886;4.700;2023-04-15T00:26:19;5.90;;;3.20;;
8993;SDS011;4532;50.886;4.700;2023-04-15T00:28:46;5.80;;;3.23;;
8993;SDS011;4532;50.886;4.700;2023-04-15T00:31:13;7.30;;;3.40;;
8993;SDS011;4532;50.886;4.700;2023-04-15T00:33:43;7.07;;;3.60;;
8993;SDS011;4532;50.886;4.700;2023-04-15T00:36:12;6.43;;;4.13;;
8993;SDS011;4532;50.886;4.700;2023-04-15T00:38:40;5.33;;;3.47;;
8993;SDS011;4532;50.886;4.700;2023-04-15T00:41:07;7.27;;;3.37;;
8993;SDS011;4532;50.886;4.700;2023-04-15T00:43:41;4.37;;;3.20;;
8993;SDS011;4532;50.886;4.700;2023-04-15T00:46:11;5.33;;;3.03;;
8993;SDS011;4532;50.886;4.700;2023-04-15T00:48:41;4.80;;;3.23;;
8993;SDS011;4532;50.886;4.700;2023-04-15T00:51:12;4.60;;;3.20;;
8993;SDS011;4532;50.886;4.700;2023-04-15T00:53:40;6.73;;;3.17;;
8993;SDS011;4532;50.886;4.700;2023-04-15T00:56:07;5.23;;;3.50;;
8993;SDS011;4532;50.886;4.700;2023-04-15T00:58:36;6.07;;;3.40;;
8993;SDS011;4532;50.886;4.700;2023-04-15T01:01:10;6.77;;;4.00;;
8993;SDS011;4532;50.886;4.700;2023-04-15T01:03:38;5.97;;;3.30;;
8993;SDS011;4532;50.886;4.700;2023-04-15T01:06:07;5.43;;;3.40;;
8993;SDS011;4532;50.886;4.700;2023-04-15T01:08:36;5.57;;;3.43;;
8993;SDS011;4532;50.886;4.700;2023-04-15T01:11:03;6.80;;;3.97;;
8993;SDS011;4532;50.886;4.700;2023-04-15T01:13:31;5.90;;;3.70;;
8993;SDS011;4532;50.886;4.700;2023-04-15T01:16:02;5.63;;;3.63;;
8993;SDS011;4532;50.886;4.700;2023-04-15T01:18:32;6.33;;;3.43;;
8993;SDS011;4532;50.886;4.700;2023-04-15T01:21:00;7.27;;;4.10;;
8993;SDS011;4532;50.886;4.700;2023-04-15T01:23:29;6.93;;;3.47;;
8993;SDS011;4532;50.886;4.700;2023-04-15T01:25:58;5.40;;;3.50;;
8993;SDS011;4532;50.886;4.700;2023-04-15T01:28:26;5.70;;;3.40;;
8993;SDS011;4532;50.886;4.700;2023-04-15T01:31:06;5.70;;;2.83;;
8993;SDS011;4532;50.886;4.700;2023-04-15T01:33:35;5.20;;;3.33;;
8993;SDS011;4532;50.886;4.700;2023-04-15T01:36:06;5.10;;;3.17;;
8993;SDS011;4532;50.886;4.700;2023-04-15T01:38:39;6.53;;;3.60;;
8993;SDS011;4532;50.886;4.700;2023-04-15T01:41:08;4.13;;;3.20;;
8993;SDS011;4532;50.886;4.700;2023-04-15T01:43:41;3.97;;;3.40;;
8993;SDS011;4532;50.886;4.700;2023-04-15T01:46:13;4.13;;;3.17;;
8993;SDS011;4532;50.886;4.700;2023-04-15T01:48:40;5.57;;;3.33;;
8993;SDS011;4532;50.886;4.700;2023-04-15T01:51:10;3.63;;;2.93;;
8993;SDS011;4532;50.886;4.700;2023-04-15T01:53:37;5.27;;;3.30;;
8993;SDS011;4532;50.886;4.700;2023-04-15T01:56:06;5.67;;;3.20;;
8993;SDS011;4532;50.886;4.700;2023-04-15T01:58:36;4.60;;;3.27;;
8993;SDS011;4532;50.886;4.700;2023-04-15T02:01:06;4.33;;;3.33;;
8993;SDS011;4532;50.886;4.700;2023-04-15T02:03:36;6.30;;;3.27;;
8993;SDS011;4532;50.886;4.700;2023-04-15T02:06:11;5.03;;;3.23;;
8993;SDS011;4532;50.886;4.700;2023-04-15T02:08:40;4.43;;;2.70;;
8993;SDS011;4532;50.886;4.700;2023-04-15T02:11:12;5.67;;;2.80;;
8993;SDS011;4532;50.886;4.700;2023-04-15T02:13:40;4.07;;;2.90;;
8993;SDS011;4532;50.886;4.700;2023-04-15T02:16:18;5.07;;;2.87;;
8993;SDS011;4532;50.886;4.700;2023-04-15T02:18:50;4.87;;;3.27;;
8993;SDS011;4532;50.886;4.700;2023-04-15T02:21:17;5.70;;;3.30;;
8993;SDS011;4532;50.886;4.700;2023-04-15T02:23:47;6.10;;;3.30;;
8993;SDS011;4532;50.886;4.700;2023-04-15T02:26:14;4.73;;;3.10;;
8993;SDS011;4532;50.886;4.700;2023-04-15T02:28:41;5.57;;;3.37;;
8993;SDS011;4532;50.886;4.700;2023-04-15T02:31:10;5.63;;;3.30;;
8993;SDS011;4532;50.886;4.700;2023-04-15T02:33:40;4.27;;;3.60;;
8993;SDS011;4532;50.886;4.700;2023-04-15T02:36:10;4.40;;;3.07;;
8993;SDS011;4532;50.886;4.700;2023-04-15T02:38:38;5.90;;;3.70;;
8993;SDS011;4532;50.886;4.700;2023-04-15T02:41:10;5.43;;;3.40;;
8993;SDS011;4532;50.886;4.700;2023-04-15T02:43:38;5.90;;;3.30;;
8993;SDS011;4532;50.886;4.700;2023-04-15T02:46:09;7.17;;;3.77;;
8993;SDS011;4532;50.886;4.700;2023-04-15T02:48:40;5.50;;;3.63;;
8993;SDS011;4532;50.886;4.700;2023-04-15T02:51:10;4.77;;;3.20;;
8993;SDS011;4532;50.886;4.700;2023-04-15T02:53:38;5.47;;;3.37;;
8993;SDS011;4532;50.886;4.700;2023-04-15T02:56:05;6.70;;;3.60;;
8993;SDS011;4532;50.886;4.700;2023-04-15T02:58:37;7.10;;;3.50;;
8993;SDS011;4532;50.886;4.700;2023-04-15T03:01:05;4.00;;;3.33;;
8993;SDS011;4532;50.886;4.700;2023-04-15T03:03:36;4.37;;;3.40;;
8993;SDS011;4532;50.886;4.700;2023-04-15T03:06:09;4.87;;;3.17;;
8993;SDS011;4532;50.886;4.700;2023-04-15T03:08:40;7.20;;;3.20;;
8993;SDS011;4532;50.886;4.700;2023-04-15T03:11:07;6.10;;;3.47;;
8993;SDS011;4532;50.886;4.700;2023-04-15T03:13:35;6.17;;;4.00;;
8993;SDS011;4532;50.886;4.700;2023-04-15T03:16:02;7.43;;;4.33;;
8993;SDS011;4532;50.886;4.700;2023-04-15T03:18:34;6.73;;;4.00;;
8993;SDS011;4532;50.886;4.700;2023-04-15T03:21:02;5.83;;;3.80;;
8993;SDS011;4532;50.886;4.700;2023-04-15T03:23:32;4.53;;;3.40;;
8993;SDS011;4532;50.886;4.700;2023-04-15T03:26:02;5.80;;;3.93;;
8993;SDS011;4532;50.886;4.700;2023-04-15T03:28:30;4.07;;;3.40;;
8993;SDS011;4532;50.886;4.700;2023-04-15T03:30:58;6.97;;;3.70;;
8993;SDS011;4532;50.886;4.700;2023-04-15T03:33:25;5.47;;;3.43;;
8993;SDS011;4532;50.886;4.700;2023-04-15T03:35:57;5.13;;;3.83;;
8993;SDS011;4532;50.886;4.700;2023-04-15T03:38:27;4.90;;;3.37;;
8993;SDS011;4532;50.886;4.700;2023-04-15T03:40:57;6.30;;;3.90;;
8993;SDS011;4532;50.886;4.700;2023-04-15T03:43:26;4.77;;;3.53;;
8993;SDS011;4532;50.886;4.700;2023-04-15T03:45:58;5.63;;;3.43;;
8993;SDS011;4532;50.886;4.700;2023-04-15T03:48:30;7.97;;;4.20;;
8993;SDS011;4532;50.886;4.700;2023-04-15T03:50:57;7.27;;;4.10;;
8993;SDS011;4532;50.886;4.700;2023-04-15T03:53:26;6.27;;;3.70;;
8993;SDS011;4532;50.886;4.700;2023-04-15T03:55:53;5.37;;;3.70;;
8993;SDS011;4532;50.886;4.700;2023-04-15T03:58:23;5.40;;;4.00;;
8993;SDS011;4532;50.886;4.700;2023-04-15T04:00:53;8.17;;;4.00;;
8993;SDS011;4532;50.886;4.700;2023-04-15T04:03:22;6.23;;;3.77;;
8993;SDS011;4532;50.886;4.700;2023-04-15T04:05:50;5.60;;;3.57;;
8993;SDS011;4532;50.886;4.700;2023-04-15T04:08:20;6.57;;;4.23;;
8993;SDS011;4532;50.886;4.700;2023-04-15T04:10:47;6.57;;;4.57;;
8993;SDS011;4532;50.886;4.700;2023-04-15T04:13:16;7.10;;;4.83;;
8993;SDS011;4532;50.886;4.700;2023-04-15T04:15:48;6.43;;;4.30;;
8993;SDS011;4532;50.886;4.700;2023-04-15T04:18:18;7.20;;;4.53;;
8993;SDS011;4532;50.886;4.700;2023-04-15T04:20:47;8.93;;;4.60;;
8993;SDS011;4532;50.886;4.700;2023-04-15T04:23:14;7.10;;;4.57;;
8993;SDS011;4532;50.886;4.700;2023-04-15T04:25:41;8.57;;;4.57;;
8993;SDS011;4532;50.886;4.700;2023-04-15T04:28:12;6.07;;;3.93;;
8993;SDS011;4532;50.886;4.700;2023-04-15T04:30:43;6.77;;;4.13;;
8993;SDS011;4532;50.886;4.700;2023-04-15T04:33:13;5.53;;;4.10;;
8993;SDS011;4532;50.886;4.700;2023-04-15T04:35:47;9.03;;;4.30;;
8993;SDS011;4532;50.886;4.700;2023-04-15T04:38:14;6.07;;;4.30;;
8993;SDS011;4532;50.886;4.700;2023-04-15T04:40:41;6.57;;;4.53;;
8993;SDS011;4532;50.886;4.700;2023-04-15T04:43:18;7.97;;;4.20;;
8993;SDS011;4532;50.886;4.700;2023-04-15T04:45:45;8.57;;;4.57;;
8993;SDS011;4532;50.886;4.700;2023-04-15T04:48:14;6.60;;;4.57;;
8993;SDS011;4532;50.886;4.700;2023-04-15T04:50:43;7.00;;;4.40;;
8993;SDS011;4532;50.886;4.700;2023-04-15T04:53:10;6.20;;;4.07;;
8993;SDS011;4532;50.886;4.700;2023-04-15T04:55:38;6.80;;;4.13;;
8993;SDS011;4532;50.886;4.700;2023-04-15T04:58:07;4.97;;;4.10;;
8993;SDS011;4532;50.886;4.700;2023-04-15T05:00:35;7.53;;;4.23;;
8993;SDS011;4532;50.886;4.700;2023-04-15T05:03:03;7.27;;;4.50;;
8993;SDS011;4532;50.886;4.700;2023-04-15T05:05:30;8.33;;;4.67;;
8993;SDS011;4532;50.886;4.700;2023-04-15T05:07:57;7.67;;;4.83;;
8993;SDS011;4532;50.886;4.700;2023-04-15T05:10:30;6.60;;;3.90;;
8993;SDS011;4532;50.886;4.700;2023-04-15T05:12:57;7.63;;;4.20;;
8993;SDS011;4532;50.886;4.700;2023-04-15T05:15:27;7.97;;;4.53;;
8993;SDS011;4532;50.886;4.700;2023-04-15T05:17:56;6.00;;;4.23;;
8993;SDS011;4532;50.886;4.700;2023-04-15T05:20:24;5.77;;;4.33;;
8993;SDS011;4532;50.886;4.700;2023-04-15T05:22:51;6.77;;;4.50;;
8993;SDS011;4532;50.886;4.700;2023-04-15T05:25:18;6.87;;;4.10;;
8993;SDS011;4532;50.886;4.700;2023-04-15T05:27:48;7.20;;;4.57;;
8993;SDS011;4532;50.886;4.700;2023-04-15T05:30:22;6.33;;;4.27;;
8993;SDS011;4532;50.886;4.700;2023-04-15T05:32:49;5.73;;;4.60;;
8993;SDS011;4532;50.886;4.700;2023-04-15T05:35:17;7.43;;;4.70;;
8993;SDS011;4532;50.886;4.700;2023-04-15T05:37:49;6.77;;;4.60;;
8993;SDS011;4532;50.886;4.700;2023-04-15T05:40:16;7.07;;;4.27;;
8993;SDS011;4532;50.886;4.700;2023-04-15T05:42:46;7.57;;;4.70;;
8993;SDS011;4532;50.886;4.700;2023-04-15T05:45:13;8.40;;;4.97;;
8993;SDS011;4532;50.886;4.700;2023-04-15T05:47:40;6.37;;;4.87;;
8993;SDS011;4532;50.886;4.700;2023-04-15T05:50:10;8.10;;;4.40;;
8993;SDS011;4532;50.886;4.700;2023-04-15T05:52:42;8.10;;;4.37;;
8993;SDS011;4532;50.886;4.700;2023-04-15T05:55:10;8.63;;;5.10;;
8993;SDS011;4532;50.886;4.700;2023-04-15T05:57:37;11.20;;;5.20;;
8993;SDS011;4532;50.886;4.700;2023-04-15T06:00:07;9.60;;;5.10;;
8993;SDS011;4532;50.886;4.700;2023-04-15T06:02:40;7.83;;;4.70;;
8993;SDS011;4532;50.886;4.700;2023-04-15T06:05:10;7.80;;;4.77;;
8993;SDS011;4532;50.886;4.700;2023-04-15T06:07:40;6.37;;;4.70;;
8993;SDS011;4532;50.886;4.700;2023-04-15T06:10:12;6.63;;;4.40;;
8993;SDS011;4532;50.886;4.700;2023-04-15T06:12:39;10.03;;;4.77;;
8993;SDS011;4532;50.886;4.700;2023-04-15T06:15:13;6.50;;;5.20;;
8993;SDS011;4532;50.886;4.700;2023-04-15T06:17:44;9.23;;;5.20;;
8993;SDS011;4532;50.886;4.700;2023-04-15T06:20:12;8.00;;;4.67;;
8993;SDS011;4532;50.886;4.700;2023-04-15T06:22:39;8.57;;;4.67;;
8993;SDS011;4532;50.886;4.700;2023-04-15T06:25:07;9.63;;;5.17;;
8993;SDS011;4532;50.886;4.700;2023-04-15T06:27:34;10.47;;;5.13;;
8993;SDS011;4532;50.886;4.700;2023-04-15T06:30:04;7.80;;;4.90;;
8993;SDS011;4532;50.886;4.700;2023-04-15T06:32:32;7.30;;;5.00;;
8993;SDS011;4532;50.886;4.700;2023-04-15T06:34:59;7.97;;;4.70;;
8993;SDS011;4532;50.886;4.700;2023-04-15T06:37:26;9.47;;;4.93;;
8993;SDS011;4532;50.886;4.700;2023-04-15T06:39:53;7.47;;;5.10;;
8993;SDS011;4532;50.886;4.700;2023-04-15T06:42:21;8.33;;;5.33;;
8993;SDS011;4532;50.886;4.700;2023-04-15T06:44:48;7.97;;;5.10;;
8993;SDS011;4532;50.886;4.700;2023-04-15T06:47:18;10.17;;;5.40;;
8993;SDS011;4532;50.886;4.700;2023-04-15T06:49:48;9.10;;;5.30;;
8993;SDS011;4532;50.886;4.700;2023-04-15T06:52:15;8.53;;;5.27;;
8993;SDS011;4532;50.886;4.700;2023-04-15T06:54:43;8.47;;;5.40;;
8993;SDS011;4532;50.886;4.700;2023-04-15T06:57:10;10.00;;;5.30;;
8993;SDS011;4532;50.886;4.700;2023-04-15T06:59:37;8.03;;;5.33;;
8993;SDS011;4532;50.886;4.700;2023-04-15T07:02:05;10.53;;;5.97;;
8993;SDS011;4532;50.886;4.700;2023-04-15T07:04:40;9.13;;;5.80;;
8993;SDS011;4532;50.886;4.700;2023-04-15T07:07:07;7.67;;;5.10;;
8993;SDS011;4532;50.886;4.700;2023-04-15T07:09:37;9.17;;;5.27;;
8993;SDS011;4532;50.886;4.700;2023-04-15T07:12:04;9.70;;;5.30;;
8993;SDS011;4532;50.886;4.700;2023-04-15T07:14:31;11.80;;;6.23;;
8993;SDS011;4532;50.886;4.700;2023-04-15T07:17:01;10.67;;;6.30;;
8993;SDS011;4532;50.886;4.700;2023-04-15T07:19:28;10.43;;;6.00;;
8993;SDS011;4532;50.886;4.700;2023-04-15T07:21:56;11.60;;;6.10;;
8993;SDS011;4532;50.886;4.700;2023-04-15T07:24:23;10.57;;;6.00;;
8993;SDS011;4532;50.886;4.700;2023-04-15T07:26:55;8.13;;;5.90;;
8993;SDS011;4532;50.886;4.700;2023-04-15T07:29:29;11.10;;;5.70;;
8993;SDS011;4532;50.886;4.700;2023-04-15T07:31:56;11.97;;;6.37;;
8993;SDS011;4532;50.886;4.700;2023-04-15T07:34:24;12.23;;;6.40;;
8993;SDS011;4532;50.886;4.700;2023-04-15T07:36:56;8.27;;;6.00;;
8993;SDS011;4532;50.886;4.700;2023-04-15T07:39:25;9.53;;;6.17;;
8993;SDS011;4532;50.886;4.700;2023-04-15T07:41:52;7.57;;;5.97;;
8993;SDS011;4532;50.886;4.700;2023-04-15T07:44:20;9.87;;;6.70;;
8993;SDS011;4532;50.886;4.700;2023-04-15T07:46:47;12.43;;;6.23;;
8993;SDS011;4532;50.886;4.700;2023-04-15T07:49:14;10.77;;;6.40;;
8993;SDS011;4532;50.886;4.700;2023-04-15T07:51:44;13.90;;;6.77;;
8993;SDS011;4532;50.886;4.700;2023-04-15T07:54:16;10.97;;;6.57;;
8993;SDS011;4532;50.886;4.700;2023-04-15T07:56:51;9.63;;;6.10;;
8993;SDS011;4532;50.886;4.700;2023-04-15T07:59:18;8.67;;;6.00;;
8993;SDS011;4532;50.886;4.700;2023-04-15T08:01:45;10.07;;;6.23;;
8993;SDS011;4532;50.886;4.700;2023-04-15T08:04:15;7.00;;;5.43;;
8993;SDS011;4532;50.886;4.700;2023-04-15T08:06:45;8.93;;;5.70;;
8993;SDS011;4532;50.886;4.700;2023-04-15T08:09:13;6.63;;;5.20;;
8993;SDS011;4532;50.886;4.700;2023-04-15T08:11:43;8.90;;;5.47;;
8993;SDS011;4532;50.886;4.700;2023-04-15T08:14:10;12.30;;;6.30;;
8993;SDS011;4532;50.886;4.700;2023-04-15T08:16:40;7.97;;;5.60;;
8993;SDS011;4532;50.886;4.700;2023-04-15T08:19:09;8.33;;;6.13;;
8993;SDS011;4532;50.886;4.700;2023-04-15T08:21:39;8.17;;;5.90;;
8993;SDS011;4532;50.886;4.700;2023-04-15T08:24:06;12.80;;;6.83;;
8993;SDS011;4532;50.886;4.700;2023-04-15T08:26:38;12.07;;;6.33;;
8993;SDS011;4532;50.886;4.700;2023-04-15T08:29:05;10.03;;;5.50;;
8993;SDS011;4532;50.886;4.700;2023-04-15T08:31:37;10.57;;;6.03;;
8993;SDS011;4532;50.886;4.700;2023-04-15T08:34:04;9.70;;;5.90;;
8993;SDS011;4532;50.886;4.700;2023-04-15T08:36:35;8.67;;;5.80;;
8993;SDS011;4532;50.886;4.700;2023-04-15T08:39:03;7.23;;;5.37;;
8993;SDS011;4532;50.886;4.700;2023-04-15T08:41:33;10.10;;;5.90;;
8993;SDS011;4532;50.886;4.700;2023-04-15T08:44:09;8.07;;;5.30;;
8993;SDS011;4532;50.886;4.700;2023-04-15T08:46:39;10.33;;;6.30;;
8993;SDS011;4532;50.886;4.700;2023-04-15T08:49:12;10.50;;;6.50;;
8993;SDS011;4532;50.886;4.700;2023-04-15T08:51:43;10.13;;;6.73;;
8993;SDS011;4532;50.886;4.700;2023-04-15T08:54:15;12.40;;;7.50;;
8993;SDS011;4532;50.886;4.700;2023-04-15T08:56:49;10.27;;;7.13;;
8993;SDS011;4532;50.886;4.700;2023-04-15T08:59:18;13.37;;;7.30;;
8993;SDS011;4532;50.886;4.700;2023-04-15T09:01:48;11.67;;;7.50;;
8993;SDS011;4532;50.886;4.700;2023-04-15T09:04:19;10.13;;;7.03;;
8993;SDS011;4532;50.886;4.700;2023-04-15T09:06:46;12.67;;;8.40;;
8993;SDS011;4532;50.886;4.700;2023-04-15T09:09:15;10.03;;;8.60;;
8993;SDS011;4532;50.886;4.700;2023-04-15T09:11:43;11.87;;;7.97;;
8993;SDS011;4532;50.886;4.700;2023-04-15T09:14:10;11.30;;;7.90;;
8993;SDS011;4532;50.886;4.700;2023-04-15T09:19:26;9.07;;;6.47;;
8993;SDS011;4532;50.886;4.700;2023-04-15T09:21:57;9.10;;;6.37;;
8993;SDS011;4532;50.886;4.700;2023-04-15T09:24:28;8.43;;;6.67;;
8993;SDS011;4532;50.886;4.700;2023-04-15T09:27:05;9.87;;;7.23;;
8993;SDS011;4532;50.886;4.700;2023-04-15T09:29:34;8.73;;;6.83;;
8993;SDS011;4532;50.886;4.700;2023-04-15T09:32:12;9.30;;;6.47;;
8993;SDS011;4532;50.886;4.700;2023-04-15T09:34:41;6.43;;;5.77;;
8993;SDS011;4532;50.886;4.700;2023-04-15T09:37:08;7.20;;;6.20;;
8993;SDS011;4532;50.886;4.700;2023-04-15T09:42:18;13.03;;;6.30;;
8993;SDS011;4532;50.886;4.700;2023-04-15T09:44:54;10.50;;;5.73;;
8993;SDS011;4532;50.886;4.700;2023-04-15T09:47:31;6.27;;;5.40;;
8993;SDS011;4532;50.886;4.700;2023-04-15T09:49:59;7.63;;;4.77;;
8993;SDS011;4532;50.886;4.700;2023-04-15T09:52:29;7.47;;;5.33;;
8993;SDS011;4532;50.886;4.700;2023-04-15T09:54:58;6.40;;;4.70;;
8993;SDS011;4532;50.886;4.700;2023-04-15T09:57:33;7.53;;;4.53;;
8993;SDS011;4532;50.886;4.700;2023-04-15T10:00:05;5.95;;;4.22;;
8993;SDS011;4532;50.886;4.700;2023-04-15T10:02:39;6.80;;;4.17;;
8993;SDS011;4532;50.886;4.700;2023-04-15T10:05:09;7.30;;;4.07;;
8993;SDS011;4532;50.886;4.700;2023-04-15T10:07:39;5.40;;;4.10;;
8993;SDS011;4532;50.886;4.700;2023-04-15T10:10:08;5.67;;;3.73;;
8993;SDS011;4532;50.886;4.700;2023-04-15T10:12:40;4.20;;;3.60;;
8993;SDS011;4532;50.886;4.700;2023-04-15T10:15:14;3.70;;;3.07;;
8993;SDS011;4532;50.886;4.700;2023-04-15T10:17:45;5.87;;;3.30;;
8993;SDS011;4532;50.886;4.700;2023-04-15T10:20:18;5.60;;;3.17;;
8993;SDS011;4532;50.886;4.700;2023-04-15T10:22:50;4.57;;;2.93;;
8993;SDS011;4532;50.886;4.700;2023-04-15T10:25:18;5.22;;;3.30;;
8993;SDS011;4532;50.886;4.700;2023-04-15T10:27:46;6.03;;;4.00;;
8993;SDS011;4532;50.886;4.700;2023-04-15T10:30:17;4.77;;;3.10;;
8993;SDS011;4532;50.886;4.700;2023-04-15T10:32:47;4.90;;;3.57;;
8993;SDS011;4532;50.886;4.700;2023-04-15T10:35:17;5.87;;;4.30;;
8993;SDS011;4532;50.886;4.700;2023-04-15T10:37:48;4.33;;;3.63;;
8993;SDS011;4532;50.886;4.700;2023-04-15T10:43:00;4.60;;;3.40;;
8993;SDS011;4532;50.886;4.700;2023-04-15T10:45:32;6.00;;;3.67;;
8993;SDS011;4532;50.886;4.700;2023-04-15T10:48:05;6.50;;;3.53;;
8993;SDS011;4532;50.886;4.700;2023-04-15T10:50:36;3.43;;;2.83;;
8993;SDS011;4532;50.886;4.700;2023-04-15T10:53:04;5.60;;;3.23;;
8993;SDS011;4532;50.886;4.700;2023-04-15T10:55:35;6.03;;;3.73;;
8993;SDS011;4532;50.886;4.700;2023-04-15T10:58:04;5.43;;;4.03;;
8993;SDS011;4532;50.886;4.700;2023-04-15T11:00:36;3.90;;;3.57;;
8993;SDS011;4532;50.886;4.700;2023-04-15T11:03:06;5.65;;;4.32;;
8993;SDS011;4532;50.886;4.700;2023-04-15T11:08:08;5.50;;;4.23;;
8993;SDS011;4532;50.886;4.700;2023-04-15T11:15:44;4.73;;;3.00;;
8993;SDS011;4532;50.886;4.700;2023-04-15T11:18:23;3.20;;;2.53;;
8993;SDS011;4532;50.886;4.700;2023-04-15T11:20:55;3.30;;;2.65;;
8993;SDS011;4532;50.886;4.700;2023-04-15T11:23:34;5.38;;;3.30;;
8993;SDS011;4532;50.886;4.700;2023-04-15T11:26:12;4.25;;;3.30;;
8993;SDS011;4532;50.886;4.700;2023-04-15T11:28:40;5.77;;;3.53;;
8993;SDS011;4532;50.886;4.700;2023-04-15T11:31:14;3.83;;;3.20;;
8993;SDS011;4532;50.886;4.700;2023-04-15T11:36:27;3.70;;;2.60;;
8993;SDS011;4532;50.886;4.700;2023-04-15T11:39:03;4.43;;;2.80;;
8993;SDS011;4532;50.886;4.700;2023-04-15T11:41:35;3.83;;;2.67;;
8993;SDS011;4532;50.886;4.700;2023-04-15T11:44:14;5.93;;;3.40;;
8993;SDS011;4532;50.886;4.700;2023-04-15T11:46:47;4.38;;;3.30;;
8993;SDS011;4532;50.886;4.700;2023-04-15T11:49:29;4.28;;;3.05;;
8993;SDS011;4532;50.886;4.700;2023-04-15T11:52:11;4.13;;;3.13;;
8993;SDS011;4532;50.886;4.700;2023-04-15T11:54:45;4.15;;;3.22;;
8993;SDS011;4532;50.886;4.700;2023-04-15T11:57:12;5.63;;;2.90;;
8993;SDS011;4532;50.886;4.700;2023-04-15T11:59:42;3.63;;;2.70;;
8993;SDS011;4532;50.886;4.700;2023-04-15T12:02:12;3.17;;;2.50;;
8993;SDS011;4532;50.886;4.700;2023-04-15T12:04:42;4.17;;;2.83;;
8993;SDS011;4532;50.886;4.700;2023-04-15T12:07:12;3.30;;;3.00;;
8993;SDS011;4532;50.886;4.700;2023-04-15T12:09:46;4.17;;;3.20;;
8993;SDS011;4532;50.886;4.700;2023-04-15T12:12:29;5.03;;;2.97;;
8993;SDS011;4532;50.886;4.700;2023-04-15T12:15:00;3.25;;;2.65;;
8993;SDS011;4532;50.886;4.700;2023-04-15T12:17:33;3.60;;;2.40;;
8993;SDS011;4532;50.886;4.700;2023-04-15T12:20:20;3.72;;;2.78;;
8993;SDS011;4532;50.886;4.700;2023-04-15T12:22:52;4.23;;;2.43;;
8993;SDS011;4532;50.886;4.700;2023-04-15T12:25:33;4.37;;;2.70;;
8993;SDS011;4532;50.886;4.700;2023-04-15T12:28:10;3.87;;;2.30;;
8993;SDS011;4532;50.886;4.700;2023-04-15T12:30:47;3.30;;;2.20;;
8993;SDS011;4532;50.886;4.700;2023-04-15T12:33:17;3.43;;;2.30;;
8993;SDS011;4532;50.886;4.700;2023-04-15T12:35:46;5.00;;;2.40;;
8993;SDS011;4532;50.886;4.700;2023-04-15T12:38:16;3.40;;;2.10;;
8993;SDS011;4532;50.886;4.700;2023-04-15T12:40:45;2.80;;;1.60;;
8993;SDS011;4532;50.886;4.700;2023-04-15T12:43:15;2.10;;;1.40;;
8993;SDS011;4532;50.886;4.700;2023-04-15T12:45:42;3.60;;;1.60;;
8993;SDS011;4532;50.886;4.700;2023-04-15T12:48:12;3.10;;;1.97;;
8993;SDS011;4532;50.886;4.700;2023-04-15T12:50:41;2.03;;;1.47;;
8993;SDS011;4532;50.886;4.700;2023-04-15T12:53:13;1.35;;;1.05;;
8993;SDS011;4532;50.886;4.700;2023-04-15T12:55:43;2.20;;;1.30;;
8993;SDS011;4532;50.886;4.700;2023-04-15T12:58:10;2.50;;;1.63;;
8993;SDS011;4532;50.886;4.700;2023-04-15T13:00:39;2.27;;;1.60;;
8993;SDS011;4532;50.886;4.700;2023-04-15T13:03:06;2.57;;;1.60;;
8993;SDS011;4532;50.886;4.700;2023-04-15T13:05:37;3.73;;;1.47;;
8993;SDS011;4532;50.886;4.700;2023-04-15T13:08:05;2.27;;;1.50;;
8993;SDS011;4532;50.886;4.700;2023-04-15T13:10:38;2.35;;;2.10;;
8993;SDS011;4532;50.886;4.700;2023-04-15T13:13:10;2.43;;;1.97;;
8993;SDS011;4532;50.886;4.700;2023-04-15T13:15:39;4.13;;;1.80;;
8993;SDS011;4532;50.886;4.700;2023-04-15T13:18:06;2.65;;;1.48;;
8993;SDS011;4532;50.886;4.700;2023-04-15T13:20:38;4.80;;;1.87;;
8993;SDS011;4532;50.886;4.700;2023-04-15T13:23:06;3.33;;;1.70;;
8993;SDS011;4532;50.886;4.700;2023-04-15T13:25:38;3.05;;;1.90;;
8993;SDS011;4532;50.886;4.700;2023-04-15T13:28:05;3.67;;;1.50;;
8993;SDS011;4532;50.886;4.700;2023-04-15T13:30:36;1.43;;;1.33;;
8993;SDS011;4532;50.886;4.700;2023-04-15T13:33:06;1.90;;;1.38;;
8993;SDS011;4532;50.886;4.700;2023-04-15T13:35:35;4.93;;;1.50;;
8993;SDS011;4532;50.886;4.700;2023-04-15T13:38:04;3.27;;;1.53;;
8993;SDS011;4532;50.886;4.700;2023-04-15T13:40:34;2.37;;;1.10;;
8993;SDS011;4532;50.886;4.700;2023-04-15T13:43:05;2.90;;;1.63;;
8993;SDS011;4532;50.886;4.700;2023-04-15T13:45:34;4.07;;;1.70;;
8993;SDS011;4532;50.886;4.700;2023-04-15T13:48:02;5.40;;;2.53;;
8993;SDS011;4532;50.886;4.700;2023-04-15T13:50:29;3.22;;;1.55;;
8993;SDS011;4532;50.886;4.700;2023-04-15T13:53:02;3.25;;;1.35;;
8993;SDS011;4532;50.886;4.700;2023-04-15T13:55:30;3.42;;;2.20;;
8993;SDS011;4532;50.886;4.700;2023-04-15T13:57:57;3.42;;;1.83;;
8993;SDS011;4532;50.886;4.700;2023-04-15T14:00:26;5.72;;;2.20;;
8993;SDS011;4532;50.886;4.700;2023-04-15T14:02:55;4.97;;;2.20;;
8993;SDS011;4532;50.886;4.700;2023-04-15T14:05:23;6.80;;;2.35;;
8993;SDS011;4532;50.886;4.700;2023-04-15T14:07:55;4.03;;;1.95;;
8993;SDS011;4532;50.886;4.700;2023-04-15T14:10:24;3.95;;;2.42;;
8993;SDS011;4532;50.886;4.700;2023-04-15T14:12:51;4.07;;;2.22;;
8993;SDS011;4532;50.886;4.700;2023-04-15T14:15:23;3.78;;;2.03;;
8993;SDS011;4532;50.886;4.700;2023-04-15T14:17:53;2.95;;;1.80;;
8993;SDS011;4532;50.886;4.700;2023-04-15T14:20:23;3.00;;;1.55;;
8993;SDS011;4532;50.886;4.700;2023-04-15T14:22:50;2.00;;;1.33;;
8993;SDS011;4532;50.886;4.700;2023-04-15T14:25:17;3.25;;;1.50;;
8993;SDS011;4532;50.886;4.700;2023-04-15T14:28:03;2.92;;;1.50;;
8993;SDS011;4532;50.886;4.700;2023-04-15T14:30:30;1.98;;;1.40;;
8993;SDS011;4532;50.886;4.700;2023-04-15T14:33:02;2.88;;;1.60;;
8993;SDS011;4532;50.886;4.700;2023-04-15T14:35:34;2.42;;;1.40;;
8993;SDS011;4532;50.886;4.700;2023-04-15T14:38:04;2.13;;;1.35;;
8993;SDS011;4532;50.886;4.700;2023-04-15T14:40:39;1.55;;;1.30;;
8993;SDS011;4532;50.886;4.700;2023-04-15T14:43:07;3.33;;;1.08;;
8993;SDS011;4532;50.886;4.700;2023-04-15T14:45:38;1.52;;;1.42;;
8993;SDS011;4532;50.886;4.700;2023-04-15T14:48:10;5.75;;;1.52;;
8993;SDS011;4532;50.886;4.700;2023-04-15T14:50:44;2.92;;;1.60;;
8993;SDS011;4532;50.886;4.700;2023-04-15T14:53:11;1.65;;;1.40;;
8993;SDS011;4532;50.886;4.700;2023-04-15T14:55:41;3.40;;;1.50;;
8993;SDS011;4532;50.886;4.700;2023-04-15T14:58:11;2.60;;;1.25;;
8993;SDS011;4532;50.886;4.700;2023-04-15T15:00:40;2.15;;;1.25;;
8993;SDS011;4532;50.886;4.700;2023-04-15T15:03:13;6.20;;;1.70;;
8993;SDS011;4532;50.886;4.700;2023-04-15T15:05:44;2.03;;;1.20;;
8993;SDS011;4532;50.886;4.700;2023-04-15T15:08:15;2.97;;;1.35;;
8993;SDS011;4532;50.886;4.700;2023-04-15T15:10:46;2.78;;;1.48;;
8993;SDS011;4532;50.886;4.700;2023-04-15T15:13:20;1.90;;;1.10;;
8993;SDS011;4532;50.886;4.700;2023-04-15T15:15:48;1.35;;;0.98;;
8993;SDS011;4532;50.886;4.700;2023-04-15T15:18:17;1.85;;;1.13;;
8993;SDS011;4532;50.886;4.700;2023-04-15T15:20:45;1.50;;;1.30;;
8993;SDS011;4532;50.886;4.700;2023-04-15T15:23:19;1.85;;;1.17;;
8993;SDS011;4532;50.886;4.700;2023-04-15T15:25:46;2.38;;;1.40;;
8993;SDS011;4532;50.886;4.700;2023-04-15T15:28:16;2.47;;;1.30;;
8993;SDS011;4532;50.886;4.700;2023-04-15T15:30:49;3.40;;;1.55;;
8993;SDS011;4532;50.886;4.700;2023-04-15T15:33:19;2.17;;;1.20;;
8993;SDS011;4532;50.886;4.700;2023-04-15T15:35:46;2.05;;;1.40;;
8993;SDS011;4532;50.886;4.700;2023-04-15T15:38:17;3.78;;;1.35;;
8993;SDS011;4532;50.886;4.700;2023-04-15T15:40:47;1.85;;;1.27;;
8993;SDS011;4532;50.886;4.700;2023-04-15T15:43:19;1.65;;;1.50;;
8993;SDS011;4532;50.886;4.700;2023-04-15T15:45:47;2.33;;;1.50;;
8993;SDS011;4532;50.886;4.700;2023-04-15T15:48:18;3.30;;;1.70;;
8993;SDS011;4532;50.886;4.700;2023-04-15T15:50:45;2.25;;;1.50;;